createdAt,value
2019-04-25T00:01:01.226Z,8.84
2019-04-25T00:03:53.391Z,8.90
2019-04-25T00:06:43.996Z,8.94
2019-04-25T00:09:41.956Z,9.05
2019-04-25T00:12:32.025Z,9.16
2019-04-25T00:15:22.388Z,9.26
2019-04-25T00:18:12.086Z,9.36
2019-04-25T00:21:09.081Z,9.49
2019-04-25T00:24:02.720Z,9.59
2019-04-25T00:26:52.508Z,9.66
2019-04-25T00:29:44.538Z,9.62
2019-04-25T00:32:33.770Z,9.62
2019-04-25T00:35:23.236Z,9.59
2019-04-25T00:38:12.642Z,9.62
2019-04-25T00:41:02.436Z,9.69
2019-04-25T00:43:52.544Z,9.56
2019-04-25T00:46:46.385Z,9.50
2019-04-25T00:49:32.395Z,9.51
2019-04-25T00:52:22.858Z,9.61
2019-04-25T00:55:13.222Z,9.75
2019-04-25T00:58:09.464Z,9.74
2019-04-25T01:01:19.320Z,9.72
2019-04-25T01:04:08.081Z,9.82
2019-04-25T01:06:57.601Z,9.93
2019-04-25T01:09:47.855Z,10.02
2019-04-25T01:12:36.454Z,9.98
2019-04-25T01:15:26.110Z,10.03
2019-04-25T01:18:15.045Z,9.98
2019-04-25T01:21:04.582Z,9.99
2019-04-25T01:23:54.561Z,9.95
2019-04-25T01:26:43.896Z,9.95
2019-04-25T01:29:33.498Z,9.92
2019-04-25T01:32:34.411Z,9.94
2019-04-25T01:35:44.841Z,9.93
2019-04-25T01:38:47.319Z,9.99
2019-04-25T01:42:01.564Z,9.94
2019-04-25T01:44:51.634Z,9.89
2019-04-25T01:47:41.227Z,9.90
2019-04-25T01:50:29.873Z,9.86
2019-04-25T01:53:19.269Z,9.80
2019-04-25T01:56:08.287Z,9.80
2019-04-25T01:58:57.370Z,9.75
2019-04-25T02:01:46.591Z,9.84
2019-04-25T02:04:36.121Z,9.83
2019-04-25T02:07:25.965Z,9.74
2019-04-25T02:10:15.634Z,9.77
2019-04-25T02:13:07.221Z,9.74
2019-04-25T02:15:57.187Z,9.73
2019-04-25T02:18:46.952Z,9.66
2019-04-25T02:21:36.064Z,9.59
2019-04-25T02:24:24.844Z,9.61
2019-04-25T02:27:13.615Z,9.69
2019-04-25T02:30:06.170Z,9.73
2019-04-25T02:32:56.029Z,9.74
2019-04-25T02:35:46.695Z,9.66
2019-04-25T02:38:35.645Z,9.63
2019-04-25T02:41:26.741Z,9.56
2019-04-25T02:44:16.061Z,9.53
2019-04-25T02:47:34.497Z,9.54
2019-04-25T02:50:34.467Z,9.53
2019-04-25T02:53:36.904Z,9.50
2019-04-25T02:56:31.200Z,9.53
2019-04-25T02:59:15.144Z,9.47
2019-04-25T03:02:05.804Z,9.46
2019-04-25T03:04:54.809Z,9.38
2019-04-25T03:07:44.682Z,9.52
2019-04-25T03:10:34.942Z,9.49
2019-04-25T03:13:24.860Z,9.48
2019-04-25T03:16:14.652Z,9.49
2019-04-25T03:19:14.583Z,9.48
2019-04-25T03:22:09.185Z,9.42
2019-04-25T03:24:55.474Z,9.46
2019-04-25T03:27:45.314Z,9.27
2019-04-25T03:30:35.482Z,9.19
2019-04-25T03:33:26.027Z,9.08
2019-04-25T03:36:17.052Z,8.98
2019-04-25T03:39:07.352Z,8.91
2019-04-25T03:41:57.153Z,8.76
2019-04-25T03:44:46.446Z,8.83
2019-04-25T03:47:36.092Z,8.88
2019-04-25T03:50:26.053Z,8.84
2019-04-25T03:53:15.820Z,8.71
2019-04-25T03:56:06.406Z,8.64
2019-04-25T03:58:55.813Z,8.46
2019-04-25T04:01:44.512Z,8.36
2019-04-25T04:04:33.999Z,8.27
2019-04-25T04:07:23.725Z,8.19
2019-04-25T04:10:15.487Z,8.26
2019-04-25T04:13:06.289Z,8.16
2019-04-25T04:15:56.289Z,8.11
2019-04-25T04:18:47.261Z,8.24
2019-04-25T04:21:45.213Z,8.63
2019-04-25T04:24:39.213Z,9.21
2019-04-25T04:27:28.041Z,9.61
2019-04-25T04:30:17.760Z,10.10
2019-04-25T04:33:08.538Z,10.24
2019-04-25T04:35:58.457Z,10.44
2019-04-25T04:38:47.276Z,10.32
2019-04-25T04:41:36.514Z,10.16
2019-04-25T04:44:25.393Z,9.98
2019-04-25T04:47:15.308Z,9.85
2019-04-25T04:50:05.177Z,9.73
2019-04-25T04:52:54.959Z,9.61
2019-04-25T04:55:44.177Z,9.52
2019-04-25T04:58:34.297Z,9.71
2019-04-25T05:01:26.412Z,9.72
2019-04-25T05:04:21.791Z,9.33
2019-04-25T05:07:29.969Z,9.05
2019-04-25T05:10:20.050Z,9.55
2019-04-25T05:13:09.855Z,9.39
2019-04-25T05:15:58.477Z,9.35
2019-04-25T05:18:48.160Z,9.25
2019-04-25T05:21:37.991Z,9.31
2019-04-25T05:24:27.465Z,10.17
2019-04-25T05:27:30.557Z,10.48
2019-04-25T05:30:08.673Z,9.80
2019-04-25T05:32:57.942Z,9.66
2019-04-25T05:35:47.983Z,9.67
2019-04-25T05:38:36.808Z,9.56
2019-04-25T05:41:45.024Z,9.54
2019-04-25T05:44:34.367Z,9.60
2019-04-25T05:47:26.016Z,9.83
2019-04-25T05:50:13.967Z,10.11
2019-04-25T05:53:04.329Z,10.37
2019-04-25T05:55:54.282Z,10.54
2019-04-25T05:58:43.954Z,10.79
2019-04-25T06:01:34.340Z,10.93
2019-04-25T06:04:24.686Z,11.02
2019-04-25T06:07:14.483Z,11.05
2019-04-25T06:10:40.843Z,11.16
2019-04-25T06:14:00.205Z,11.49
2019-04-25T06:16:48.031Z,11.85
2019-04-25T06:19:39.589Z,11.80
2019-04-25T06:22:50.386Z,11.77
2019-04-25T06:25:39.980Z,11.84
2019-04-25T06:28:34.361Z,11.92
2019-04-25T06:31:23.830Z,12.11
2019-04-25T06:34:13.962Z,12.54
2019-04-25T06:37:05.968Z,12.60
2019-04-25T06:39:53.697Z,12.97
2019-04-25T06:42:43.560Z,12.93
2019-04-25T06:45:54.079Z,13.11
2019-04-25T06:48:48.342Z,13.33
2019-04-25T06:51:51.194Z,13.41
2019-04-25T06:54:39.905Z,13.67
2019-04-25T06:57:30.530Z,13.81
2019-04-25T07:00:20.206Z,13.94
2019-04-25T07:03:09.896Z,14.11
2019-04-25T07:05:59.321Z,14.06
2019-04-25T07:08:48.654Z,14.03
2019-04-25T07:11:37.436Z,14.19
2019-04-25T07:14:27.069Z,14.19
2019-04-25T07:17:16.809Z,14.27
2019-04-25T07:20:06.706Z,14.58
2019-04-25T07:22:55.907Z,14.49
2019-04-25T07:25:51.191Z,14.66
2019-04-25T07:29:07.951Z,14.88
2019-04-25T07:32:31.187Z,15.11
2019-04-25T07:35:20.786Z,15.31
2019-04-25T07:38:10.497Z,15.54
2019-04-25T07:40:59.179Z,15.72
2019-04-25T07:43:48.841Z,16.22
2019-04-25T07:46:39.983Z,16.86
2019-04-25T07:49:30.497Z,16.39
2019-04-25T07:52:18.909Z,16.67
2019-04-25T07:55:08.555Z,16.90
2019-04-25T07:57:57.758Z,16.61
2019-04-25T08:00:46.498Z,16.79
2019-04-25T08:03:36.894Z,16.69
2019-04-25T08:06:25.817Z,16.68
2019-04-25T08:09:15.771Z,16.82
2019-04-25T08:12:04.587Z,16.76
2019-04-25T08:15:04.075Z,17.05
2019-04-25T08:17:58.901Z,16.97
2019-04-25T08:20:48.442Z,16.82
2019-04-25T08:23:38.947Z,17.13
2019-04-25T08:26:29.435Z,17.19
2019-04-25T08:29:18.324Z,17.37
2019-04-25T08:32:07.794Z,17.75
2019-04-25T08:34:56.989Z,17.85
2019-04-25T08:37:46.258Z,18.04
2019-04-25T08:40:37.774Z,18.12
2019-04-25T08:43:26.844Z,17.68
2019-04-25T08:46:16.565Z,17.57
2019-04-25T08:49:15.927Z,17.69
2019-04-25T08:52:05.510Z,17.96
2019-04-25T08:55:00.189Z,18.20
2019-04-25T08:58:03.725Z,18.63
2019-04-25T09:01:05.274Z,18.47
2019-04-25T09:04:13.476Z,18.53
2019-04-25T09:07:03.381Z,18.61
2019-04-25T09:09:53.538Z,18.74
2019-04-25T09:12:44.225Z,18.59
2019-04-25T09:15:35.628Z,18.67
2019-04-25T09:18:23.966Z,18.89
2019-04-25T09:21:13.903Z,19.14
2019-04-25T09:24:03.614Z,19.15
2019-04-25T09:26:54.079Z,19.50
2019-04-25T09:29:45.228Z,19.70
2019-04-25T09:32:35.532Z,19.80
2019-04-25T09:35:24.866Z,20.14
2019-04-25T09:38:13.567Z,19.89
2019-04-25T09:41:03.846Z,19.98
2019-04-25T09:43:56.349Z,20.04
2019-04-25T09:46:46.877Z,20.74
2019-04-25T09:49:37.962Z,20.33
2019-04-25T09:52:27.530Z,20.27
2019-04-25T09:55:33.949Z,20.67
2019-04-25T09:58:48.534Z,20.77
2019-04-25T10:01:40.206Z,20.65
2019-04-25T10:04:29.464Z,20.71
2019-04-25T10:07:18.556Z,21.00
2019-04-25T10:10:08.551Z,20.65
2019-04-25T10:12:57.402Z,20.63
2019-04-25T10:15:54.451Z,20.53
2019-04-25T10:18:44.670Z,20.46
2019-04-25T10:21:34.963Z,20.59
2019-04-25T10:24:23.988Z,20.88
2019-04-25T10:27:13.990Z,20.68
2019-04-25T10:30:16.001Z,21.24
2019-04-25T10:32:54.779Z,21.49
2019-04-25T10:35:51.990Z,21.76
2019-04-25T10:38:35.105Z,21.04
2019-04-25T10:41:25.860Z,21.29
2019-04-25T10:44:15.019Z,21.33
2019-04-25T10:47:04.929Z,21.07
2019-04-25T10:49:55.490Z,21.48
2019-04-25T10:52:45.819Z,21.81
2019-04-25T10:55:34.687Z,22.01
2019-04-25T10:58:24.531Z,22.19
2019-04-25T11:01:15.347Z,22.62
2019-04-25T11:04:41.069Z,22.93
2019-04-25T11:07:30.234Z,22.63
2019-04-25T11:10:19.673Z,22.70
2019-04-25T11:13:08.420Z,22.95
2019-04-25T11:15:57.859Z,23.67
2019-04-25T11:18:48.355Z,23.80
2019-04-25T11:21:37.186Z,23.98
2019-04-25T11:24:26.478Z,23.58
2019-04-25T11:27:16.217Z,23.89
2019-04-25T11:30:10.905Z,23.66
2019-04-25T11:32:58.154Z,23.34
2019-04-25T11:35:48.998Z,23.50
2019-04-25T11:39:04.188Z,23.79
2019-04-25T11:41:55.651Z,23.61
2019-04-25T11:44:45.735Z,23.44
2019-04-25T11:47:35.958Z,23.41
2019-04-25T11:50:25.389Z,23.59
2019-04-25T11:53:14.832Z,23.39
2019-04-25T11:56:04.251Z,23.83
2019-04-25T11:58:54.219Z,23.53
2019-04-25T12:01:45.345Z,23.86
2019-04-25T12:04:34.878Z,23.93
2019-04-25T12:07:24.433Z,23.99
2019-04-25T12:10:13.892Z,24.01
2019-04-25T12:13:02.932Z,23.85
2019-04-25T12:15:52.484Z,23.99
2019-04-25T12:18:44.777Z,24.03
2019-04-25T12:21:34.026Z,24.23
2019-04-25T12:24:23.931Z,23.84
2019-04-25T12:27:12.597Z,23.96
2019-04-25T12:30:01.347Z,23.94
2019-04-25T12:32:52.304Z,23.98
2019-04-25T12:35:43.883Z,24.22
2019-04-25T12:38:35.406Z,24.15
2019-04-25T12:41:25.319Z,24.52
2019-04-25T12:44:32.411Z,24.65
2019-04-25T12:47:24.020Z,24.87
2019-04-25T12:50:14.380Z,24.60
2019-04-25T12:53:03.753Z,24.78
2019-04-25T12:55:53.795Z,24.79
2019-04-25T12:58:43.580Z,24.46
2019-04-25T13:01:33.344Z,24.69
2019-04-25T13:04:22.885Z,25.35
2019-04-25T13:07:13.714Z,25.49
2019-04-25T13:10:03.202Z,25.59
2019-04-25T13:12:55.286Z,25.58
2019-04-25T13:15:45.865Z,25.90
2019-04-25T13:18:33.853Z,25.69
2019-04-25T13:21:23.625Z,25.48
2019-04-25T13:24:13.286Z,25.77
2019-04-25T13:27:23.480Z,25.56
2019-04-25T13:30:29.915Z,25.92
2019-04-25T13:33:50.585Z,26.01
2019-04-25T13:36:39.537Z,26.09
2019-04-25T13:39:29.580Z,26.04
2019-04-25T13:42:18.496Z,25.97
2019-04-25T13:45:07.549Z,26.37
2019-04-25T13:47:56.756Z,26.09
2019-04-25T13:50:46.368Z,26.18
2019-04-25T13:53:35.611Z,26.02
2019-04-25T13:56:26.537Z,26.39
2019-04-25T13:59:15.834Z,26.72
2019-04-25T14:02:06.993Z,26.96
2019-04-25T14:04:56.466Z,26.63
2019-04-25T14:07:45.682Z,26.61
2019-04-25T14:10:34.474Z,26.33
2019-04-25T14:13:25.095Z,26.28
2019-04-25T14:16:30.607Z,26.31
2019-04-25T14:19:48.241Z,26.35
2019-04-25T14:22:37.053Z,26.47
2019-04-25T14:25:27.655Z,26.55
2019-04-25T14:28:17.173Z,26.59
2019-04-25T14:31:08.139Z,26.53
2019-04-25T14:33:57.496Z,26.50
2019-04-25T14:36:46.581Z,26.58
2019-04-25T14:39:36.230Z,26.72
2019-04-25T14:42:26.488Z,27.03
2019-04-25T14:45:17.047Z,27.23
2019-04-25T14:48:06.021Z,27.29
2019-04-25T14:50:55.693Z,27.53
2019-04-25T14:53:44.489Z,27.24
2019-04-25T14:57:01.696Z,27.04
2019-04-25T14:59:51.377Z,26.64
2019-04-25T15:02:40.785Z,26.78
2019-04-25T15:05:31.020Z,26.62
2019-04-25T15:08:20.357Z,26.50
2019-04-25T15:11:10.181Z,26.30
2019-04-25T15:13:59.057Z,26.18
2019-04-25T15:16:48.279Z,26.37
2019-04-25T15:19:37.385Z,26.25
2019-04-25T15:22:26.608Z,26.11
2019-04-25T15:25:15.346Z,26.19
2019-04-25T15:28:04.229Z,26.20
2019-04-25T15:30:53.570Z,26.21
2019-04-25T15:33:42.975Z,26.16
2019-04-25T15:36:54.212Z,26.30
2019-04-25T15:39:49.899Z,26.32
2019-04-25T15:42:52.265Z,26.39
2019-04-25T15:45:55.817Z,26.54
2019-04-25T15:48:44.975Z,26.77
2019-04-25T15:51:33.569Z,26.95
2019-04-25T15:54:22.939Z,27.09
2019-04-25T15:57:12.762Z,27.13
2019-04-25T16:00:02.035Z,27.18
2019-04-25T16:02:51.656Z,27.29
2019-04-25T16:05:39.976Z,27.16
2019-04-25T16:08:28.902Z,26.94
2019-04-25T16:11:17.922Z,26.91
2019-04-25T16:14:07.402Z,26.48
2019-04-25T16:16:57.049Z,26.39
2019-04-25T16:19:46.517Z,26.19
2019-04-25T16:22:36.610Z,26.22
2019-04-25T16:25:27.346Z,25.91
2019-04-25T16:28:16.075Z,25.83
2019-04-25T16:31:07.102Z,25.86
2019-04-25T16:33:56.358Z,25.72
2019-04-25T16:36:45.701Z,25.62
2019-04-25T16:39:35.950Z,25.74
2019-04-25T16:42:25.269Z,25.64
2019-04-25T16:45:14.946Z,25.69
2019-04-25T16:48:04.603Z,25.56
2019-04-25T16:50:53.174Z,25.47
2019-04-25T16:53:43.035Z,25.22
2019-04-25T16:56:32.465Z,25.01
2019-04-25T16:59:21.714Z,25.28
2019-04-25T17:02:11.519Z,25.51
2019-04-25T17:05:01.062Z,25.70
2019-04-25T17:07:50.519Z,25.49
2019-04-25T17:10:39.561Z,25.18
2019-04-25T17:13:32.054Z,25.12
2019-04-25T17:16:47.867Z,24.79
2019-04-25T17:19:52.997Z,23.69
2019-04-25T17:22:42.518Z,22.57
2019-04-25T17:25:32.611Z,21.95
2019-04-25T17:28:23.191Z,21.45
2019-04-25T17:31:23.123Z,21.12
2019-04-25T18:33:10.594Z,16.88
2019-04-25T18:35:59.646Z,16.81
2019-04-25T18:39:32.083Z,16.78
2019-04-25T18:43:30.044Z,16.63
2019-04-25T18:54:25.236Z,16.08
2019-04-25T18:57:37.534Z,15.92
2019-04-25T19:00:51.237Z,15.83
2019-04-25T19:04:05.131Z,15.64
2019-04-25T19:07:01.298Z,15.67
2019-04-25T19:10:01.061Z,15.58
2019-04-25T19:12:56.600Z,15.52
2019-04-25T19:15:49.384Z,15.42
2019-04-25T19:18:51.608Z,15.25
2019-04-25T19:21:41.787Z,15.22
2019-04-25T19:24:31.736Z,15.06
2019-04-25T19:27:24.023Z,15.02
2019-04-25T19:30:14.148Z,14.85
2019-04-25T19:33:03.984Z,14.75
2019-04-25T19:35:53.985Z,14.70
2019-04-25T19:38:44.027Z,14.60
2019-04-25T19:41:42.979Z,14.59
2019-04-25T19:44:33.606Z,14.40
2019-04-25T19:47:23.894Z,13.99
2019-04-25T19:50:13.440Z,13.87
2019-04-25T19:53:02.928Z,13.67
2019-04-25T19:55:52.003Z,13.65
2019-04-25T19:58:42.209Z,13.71
2019-04-25T20:01:31.875Z,13.86
2019-04-25T20:04:46.790Z,13.78
2019-04-25T20:07:46.562Z,13.65
2019-04-25T20:10:41.504Z,13.62
2019-04-25T20:13:29.992Z,13.61
2019-04-25T20:16:19.686Z,13.46
2019-04-25T20:19:09.529Z,13.36
2019-04-25T20:21:59.760Z,13.39
2019-04-25T20:24:52.417Z,13.33
2019-04-25T20:27:42.847Z,13.17
2019-04-25T20:30:32.512Z,13.23
2019-04-25T20:33:23.490Z,13.16
2019-04-25T20:36:17.942Z,13.13
2019-04-25T20:39:07.130Z,13.07
2019-04-25T20:41:57.929Z,12.84
2019-04-25T20:44:47.794Z,12.75
2019-04-25T20:47:37.692Z,12.61
2019-04-25T20:50:27.454Z,12.48
2019-04-25T20:53:17.318Z,12.53
2019-04-25T20:56:06.957Z,12.55
2019-04-25T20:58:56.444Z,12.49
2019-04-25T21:01:47.161Z,12.52
2019-04-25T21:04:40.901Z,12.26
2019-04-25T21:07:29.639Z,12.18
2019-04-25T21:10:18.991Z,11.96
2019-04-25T21:13:12.411Z,12.00
2019-04-25T21:16:23.698Z,11.87
2019-04-25T21:19:13.561Z,11.73
2019-04-25T21:22:02.285Z,11.62
2019-04-25T21:24:51.850Z,11.54
2019-04-25T21:27:41.788Z,11.38
2019-04-25T21:30:30.738Z,11.26
2019-04-25T21:33:19.435Z,11.30
2019-04-25T21:36:09.549Z,11.42
2019-04-25T21:38:59.803Z,11.35
2019-04-25T21:42:15.895Z,11.32
2019-04-25T21:45:05.514Z,11.31
2019-04-25T21:47:55.217Z,11.34
2019-04-25T21:50:45.742Z,11.33
2019-04-25T21:53:35.159Z,11.23
2019-04-25T21:56:25.109Z,11.12
2019-04-25T21:59:14.894Z,11.00
2019-04-25T22:02:04.892Z,10.85
2019-04-25T22:04:55.821Z,10.69
2019-04-25T22:07:46.600Z,10.52
2019-04-25T22:10:35.800Z,10.36
2019-04-25T22:13:25.137Z,10.30
2019-04-25T22:16:14.192Z,10.12
2019-04-25T22:19:04.337Z,10.04
2019-04-25T22:21:53.990Z,9.90
2019-04-25T22:24:42.535Z,9.86
2019-04-25T22:27:36.692Z,9.80
2019-04-25T22:30:25.695Z,9.64
2019-04-25T22:33:36.405Z,9.59
2019-04-25T22:36:25.256Z,9.53
2019-04-25T22:39:14.608Z,9.41
2019-04-25T22:42:04.314Z,9.40
2019-04-25T22:44:53.913Z,9.39
2019-04-25T22:47:43.711Z,9.31
2019-04-25T22:50:32.860Z,9.22
2019-04-25T22:53:25.777Z,9.19
2019-04-25T22:56:13.005Z,9.25
2019-04-25T22:59:02.835Z,9.19
2019-04-25T23:02:09.608Z,9.16
2019-04-25T23:05:13.835Z,9.03
2019-04-25T23:07:59.470Z,8.93
2019-04-25T23:10:49.483Z,8.90
2019-04-25T23:13:39.173Z,8.92
2019-04-25T23:16:29.152Z,8.80
2019-04-25T23:19:19.803Z,8.81
2019-04-25T23:22:09.468Z,8.85
2019-04-25T23:25:04.938Z,8.85
2019-04-25T23:28:06.509Z,8.78
2019-04-25T23:31:21.345Z,8.78
2019-04-25T23:34:10.849Z,8.64
2019-04-25T23:36:59.802Z,8.52
2019-04-25T23:39:49.079Z,8.58
2019-04-25T23:42:38.560Z,8.63
2019-04-25T23:45:27.446Z,8.60
2019-04-25T23:48:16.591Z,8.50
2019-04-25T23:51:06.389Z,8.51
2019-04-25T23:53:56.153Z,8.42
2019-04-25T23:56:45.903Z,8.39
2019-04-25T23:59:36.194Z,8.39
